Etters, Pennsylvania
Current Conditions -  °F | °C
As of 5:56 PM on Saturday 25 Oct 2014 (Local Time) from KMDT Reporting Station
Broken Clouds Broken Clouds  
Wind Chill: 68°   Ceiling: 6500
Heat Index: 68°   Visibility: 10mi
Dew Point: 45°   Wind: 10mph
Humidity: 43%   Direction: 240°WSW
Pressure: 29.67"   Gusts: NA
Location:  40.15°N, 76.79°W
Report Text: KMDT 252156Z 24009KT 10SM BKN065 20/07 A2967 RMK AO2 SLP049 T02000072
Loading
Personal Weather Stations






























Interactive Weather Map
Tropical Storm Tracking
New forecast layout! Learn more

10-Day Weather Forecast

Advertisements
Track Severe Weather on mobile